CheckWX is a tool to help pilots better visualize weather data.  It is not intended as a substitute for an official pre-flight weather briefing.

13:33:52 UTC

EDHL TAF
Lübeck Blankensee Airport
Lübeck, Germany
TAF EDHL 181100Z 1812/1821 23007KT 9999 BKN030 TEMPO 1812/1816 4000 RA BKN012

Aug-18@
12:00 UTC

Aug-18 @ 12:00 UTC

Aug-18@
21:00 UTC

Aug-18 @ 21:00 UTC

TAF EDHL 181100Z 1812/1821 23007KT 9999 BKN030
Wind
  • 230° at 7 KTS
Cloud Levels
  • Broken at 3,000' AGL

Aug-18@
12:00 UTC

Aug-18 @ 12:00 UTC

Aug-18@
16:00 UTC

Aug-18 @ 16:00 UTC

TEMPO 1812/1816 4000 RA BKN012

Temporary

Temporary Changes expected for less than half the time period

Conditions
Rain
Cloud Levels
  • Broken at 1,200' AGL